sensor_id;sensor_type;location;lat;lon;timestamp;pressure;altitude;pressure_sealevel;temperature;humidity
59443;BME280;45247;47.466;19.004;2023-04-28T00:00:04;100438.03;;;2.68;100.00
59443;BME280;45247;47.466;19.004;2023-04-28T00:02:33;100440.78;;;2.60;100.00
59443;BME280;45247;47.466;19.004;2023-04-28T00:05:01;100444.19;;;2.64;100.00
59443;BME280;45247;47.466;19.004;2023-04-28T00:07:30;100440.59;;;2.69;100.00
59443;BME280;45247;47.466;19.004;2023-04-28T00:09:58;100445.16;;;2.58;100.00
59443;BME280;45247;47.466;19.004;2023-04-28T00:12:26;100441.88;;;2.48;100.00
59443;BME280;45247;47.466;19.004;2023-04-28T00:14:56;100450.88;;;2.29;100.00
59443;BME280;45247;47.466;19.004;2023-04-28T00:17:24;100444.94;;;2.21;100.00
59443;BME280;45247;47.466;19.004;2023-04-28T00:19:52;100452.06;;;2.10;100.00
59443;BME280;45247;47.466;19.004;2023-04-28T00:22:20;100458.34;;;1.96;100.00
59443;BME280;45247;47.466;19.004;2023-04-28T00:24:48;100452.38;;;1.90;100.00
59443;BME280;45247;47.466;19.004;2023-04-28T00:27:16;100442.03;;;1.87;100.00
59443;BME280;45247;47.466;19.004;2023-04-28T00:29:46;100446.47;;;1.80;100.00
59443;BME280;45247;47.466;19.004;2023-04-28T00:32:15;100443.13;;;1.72;100.00
59443;BME280;45247;47.466;19.004;2023-04-28T00:34:43;100441.31;;;1.77;100.00
59443;BME280;45247;47.466;19.004;2023-04-28T00:37:11;100441.16;;;1.86;100.00
59443;BME280;45247;47.466;19.004;2023-04-28T00:39:40;100444.53;;;1.91;100.00
59443;BME280;45247;47.466;19.004;2023-04-28T00:42:11;100446.25;;;1.92;100.00
59443;BME280;45247;47.466;19.004;2023-04-28T00:44:39;100440.13;;;1.96;100.00
59443;BME280;45247;47.466;19.004;2023-04-28T00:47:08;100444.41;;;2.00;100.00
59443;BME280;45247;47.466;19.004;2023-04-28T00:49:38;100439.84;;;2.13;100.00
59443;BME280;45247;47.466;19.004;2023-04-28T00:52:06;100443.06;;;2.29;100.00
59443;BME280;45247;47.466;19.004;2023-04-28T00:54:34;100451.50;;;2.45;100.00
59443;BME280;45247;47.466;19.004;2023-04-28T00:57:02;100444.50;;;2.47;100.00
59443;BME280;45247;47.466;19.004;2023-04-28T00:59:30;100448.75;;;2.51;100.00
59443;BME280;45247;47.466;19.004;2023-04-28T01:01:59;100448.81;;;2.49;100.00
59443;BME280;45247;47.466;19.004;2023-04-28T01:04:28;100449.75;;;2.45;100.00
59443;BME280;45247;47.466;19.004;2023-04-28T01:06:59;100454.09;;;2.43;100.00
59443;BME280;45247;47.466;19.004;2023-04-28T01:09:27;100447.19;;;2.42;100.00
59443;BME280;45247;47.466;19.004;2023-04-28T01:11:55;100451.31;;;2.53;100.00
59443;BME280;45247;47.466;19.004;2023-04-28T01:14:24;100455.69;;;2.54;100.00
59443;BME280;45247;47.466;19.004;2023-04-28T01:16:52;100452.94;;;2.60;100.00
59443;BME280;45247;47.466;19.004;2023-04-28T01:19:21;100448.59;;;2.60;100.00
59443;BME280;45247;47.466;19.004;2023-04-28T01:21:50;100448.44;;;2.68;100.00
59443;BME280;45247;47.466;19.004;2023-04-28T01:24:19;100450.13;;;2.72;100.00
59443;BME280;45247;47.466;19.004;2023-04-28T01:26:47;100448.50;;;2.65;100.00
59443;BME280;45247;47.466;19.004;2023-04-28T01:29:15;100444.44;;;2.50;100.00
59443;BME280;45247;47.466;19.004;2023-04-28T01:31:43;100448.03;;;2.43;100.00
59443;BME280;45247;47.466;19.004;2023-04-28T01:34:12;100441.19;;;2.37;100.00
59443;BME280;45247;47.466;19.004;2023-04-28T01:36:40;100446.44;;;2.36;100.00
59443;BME280;45247;47.466;19.004;2023-04-28T01:39:09;100441.22;;;2.36;100.00
59443;BME280;45247;47.466;19.004;2023-04-28T01:41:38;100436.81;;;2.39;100.00
59443;BME280;45247;47.466;19.004;2023-04-28T01:44:07;100436.97;;;2.30;100.00
59443;BME280;45247;47.466;19.004;2023-04-28T01:46:35;100419.75;;;2.23;100.00
59443;BME280;45247;47.466;19.004;2023-04-28T01:49:03;100433.63;;;2.22;100.00
59443;BME280;45247;47.466;19.004;2023-04-28T01:51:31;100434.56;;;2.18;100.00
59443;BME280;45247;47.466;19.004;2023-04-28T01:54:00;100430.28;;;2.14;100.00
59443;BME280;45247;47.466;19.004;2023-04-28T01:56:28;100440.78;;;2.11;100.00
59443;BME280;45247;47.466;19.004;2023-04-28T01:58:58;100442.66;;;2.03;100.00
59443;BME280;45247;47.466;19.004;2023-04-28T02:01:26;100437.66;;;1.87;100.00
59443;BME280;45247;47.466;19.004;2023-04-28T02:03:54;100448.06;;;1.89;100.00
59443;BME280;45247;47.466;19.004;2023-04-28T02:06:23;100451.69;;;1.80;100.00
59443;BME280;45247;47.466;19.004;2023-04-28T02:08:51;100446.50;;;1.77;100.00
59443;BME280;45247;47.466;19.004;2023-04-28T02:11:19;100446.50;;;1.77;100.00
59443;BME280;45247;47.466;19.004;2023-04-28T02:13:47;100451.75;;;1.74;100.00
59443;BME280;45247;47.466;19.004;2023-04-28T02:16:17;100450.94;;;1.72;100.00
59443;BME280;45247;47.466;19.004;2023-04-28T02:18:46;100451.75;;;1.74;100.00
59443;BME280;45247;47.466;19.004;2023-04-28T02:21:14;100445.81;;;1.64;100.00
59443;BME280;45247;47.466;19.004;2023-04-28T02:23:42;100454.66;;;1.53;100.00
59443;BME280;45247;47.466;19.004;2023-04-28T02:26:10;100457.44;;;1.39;100.00
59443;BME280;45247;47.466;19.004;2023-04-28T02:28:38;100461.91;;;1.29;100.00
59443;BME280;45247;47.466;19.004;2023-04-28T02:31:08;100454.97;;;1.28;100.00
59443;BME280;45247;47.466;19.004;2023-04-28T02:33:38;100456.81;;;1.20;100.00
59443;BME280;45247;47.466;19.004;2023-04-28T02:36:08;100455.16;;;1.14;100.00
59443;BME280;45247;47.466;19.004;2023-04-28T02:38:37;100456.94;;;1.11;100.00
59443;BME280;45247;47.466;19.004;2023-04-28T02:41:07;100450.94;;;1.06;100.00
59443;BME280;45247;47.466;19.004;2023-04-28T02:43:36;100460.44;;;1.07;100.00
59443;BME280;45247;47.466;19.004;2023-04-28T02:46:04;100460.50;;;1.04;100.00
59443;BME280;45247;47.466;19.004;2023-04-28T02:48:33;100458.72;;;1.06;100.00
59443;BME280;45247;47.466;19.004;2023-04-28T02:51:04;100456.16;;;1.04;100.00
59443;BME280;45247;47.466;19.004;2023-04-28T02:53:32;100459.63;;;1.05;100.00
59443;BME280;45247;47.466;19.004;2023-04-28T02:56:00;100459.50;;;1.14;100.00
59443;BME280;45247;47.466;19.004;2023-04-28T02:58:30;100462.06;;;1.15;100.00
59443;BME280;45247;47.466;19.004;2023-04-28T03:00:58;100457.78;;;1.13;100.00
59443;BME280;45247;47.466;19.004;2023-04-28T03:03:26;100460.34;;;1.16;100.00
59443;BME280;45247;47.466;19.004;2023-04-28T03:05:55;100456.91;;;1.14;100.00
59443;BME280;45247;47.466;19.004;2023-04-28T03:08:24;100457.81;;;1.10;100.00
59443;BME280;45247;47.466;19.004;2023-04-28T03:10:53;100463.94;;;1.07;100.00
59443;BME280;45247;47.466;19.004;2023-04-28T03:13:21;100470.06;;;0.98;100.00
59443;BME280;45247;47.466;19.004;2023-04-28T03:15:49;100477.19;;;0.81;100.00
59443;BME280;45247;47.466;19.004;2023-04-28T03:18:18;100479.03;;;0.73;100.00
59443;BME280;45247;47.466;19.004;2023-04-28T03:20:46;100476.56;;;0.61;100.00
59443;BME280;45247;47.466;19.004;2023-04-28T03:23:14;100472.22;;;0.60;100.00
59443;BME280;45247;47.466;19.004;2023-04-28T03:25:44;100470.47;;;0.65;100.00
59443;BME280;45247;47.466;19.004;2023-04-28T03:28:12;100474.75;;;0.66;100.00
59443;BME280;45247;47.466;19.004;2023-04-28T03:30:40;100470.38;;;0.71;100.00
59443;BME280;45247;47.466;19.004;2023-04-28T03:33:08;100473.75;;;0.79;100.00
59443;BME280;45247;47.466;19.004;2023-04-28T03:35:36;100473.75;;;0.82;100.00
59443;BME280;45247;47.466;19.004;2023-04-28T03:38:04;100476.25;;;0.88;100.00
59443;BME280;45247;47.466;19.004;2023-04-28T03:40:32;100478.69;;;1.02;100.00
59443;BME280;45247;47.466;19.004;2023-04-28T03:43:02;100482.97;;;1.06;100.00
59443;BME280;45247;47.466;19.004;2023-04-28T03:45:30;100476.88;;;1.12;100.00
59443;BME280;45247;47.466;19.004;2023-04-28T03:47:58;100475.00;;;1.21;100.00
59443;BME280;45247;47.466;19.004;2023-04-28T03:50:26;100481.84;;;1.30;100.00
59443;BME280;45247;47.466;19.004;2023-04-28T03:52:55;100485.13;;;1.46;100.00
59443;BME280;45247;47.466;19.004;2023-04-28T03:55:23;100484.69;;;1.75;100.00
59443;BME280;45247;47.466;19.004;2023-04-28T03:57:51;100482.59;;;2.02;100.00
59443;BME280;45247;47.466;19.004;2023-04-28T04:00:21;100476.59;;;2.49;100.00
59443;BME280;45247;47.466;19.004;2023-04-28T04:02:49;100474.59;;;3.51;100.00
59443;BME280;45247;47.466;19.004;2023-04-28T04:05:17;100476.88;;;4.74;100.00
59443;BME280;45247;47.466;19.004;2023-04-28T04:07:45;100478.03;;;5.85;100.00
59443;BME280;45247;47.466;19.004;2023-04-28T04:10:14;100476.19;;;6.70;100.00
59443;BME280;45247;47.466;19.004;2023-04-28T04:12:42;100472.56;;;7.91;97.66
59443;BME280;45247;47.466;19.004;2023-04-28T04:15:10;100474.06;;;8.83;86.23
59443;BME280;45247;47.466;19.004;2023-04-28T04:17:40;100476.84;;;9.76;80.37
59443;BME280;45247;47.466;19.004;2023-04-28T04:20:09;100480.72;;;10.24;72.99
59443;BME280;45247;47.466;19.004;2023-04-28T04:22:37;100476.34;;;10.94;71.31
59443;BME280;45247;47.466;19.004;2023-04-28T04:25:06;100473.63;;;11.28;68.78
59443;BME280;45247;47.466;19.004;2023-04-28T04:27:34;100485.72;;;12.29;64.53
59443;BME280;45247;47.466;19.004;2023-04-28T04:30:03;100486.09;;;12.97;61.92
59443;BME280;45247;47.466;19.004;2023-04-28T04:32:31;100484.09;;;13.45;57.53
59443;BME280;45247;47.466;19.004;2023-04-28T04:35:00;100476.97;;;14.01;53.83
59443;BME280;45247;47.466;19.004;2023-04-28T04:37:28;100475.84;;;14.45;51.43
59443;BME280;45247;47.466;19.004;2023-04-28T04:39:57;100471.06;;;14.65;50.97
59443;BME280;45247;47.466;19.004;2023-04-28T04:42:25;100473.66;;;15.05;48.71
59443;BME280;45247;47.466;19.004;2023-04-28T04:44:53;100464.03;;;15.66;47.91
59443;BME280;45247;47.466;19.004;2023-04-28T04:47:21;100463.88;;;15.80;46.87
59443;BME280;45247;47.466;19.004;2023-04-28T04:49:50;100465.66;;;15.92;46.14
59443;BME280;45247;47.466;19.004;2023-04-28T04:52:19;100459.09;;;16.33;44.34
59443;BME280;45247;47.466;19.004;2023-04-28T04:54:47;100465.00;;;16.61;42.93
59443;BME280;45247;47.466;19.004;2023-04-28T04:57:15;100467.66;;;16.61;42.41
59443;BME280;45247;47.466;19.004;2023-04-28T04:59:44;100459.81;;;17.62;40.68
59443;BME280;45247;47.466;19.004;2023-04-28T05:02:12;100463.00;;;17.22;40.56
59443;BME280;45247;47.466;19.004;2023-04-28T05:04:40;100459.59;;;17.09;40.31
59443;BME280;45247;47.466;19.004;2023-04-28T05:07:08;100464.19;;;17.29;40.36
59443;BME280;45247;47.466;19.004;2023-04-28T05:09:40;100459.34;;;17.57;39.98
59443;BME280;45247;47.466;19.004;2023-04-28T05:12:08;100469.03;;;17.80;39.66
59443;BME280;45247;47.466;19.004;2023-04-28T05:14:36;100470.31;;;18.40;38.88
59443;BME280;45247;47.466;19.004;2023-04-28T05:17:04;100471.00;;;18.86;37.21
59443;BME280;45247;47.466;19.004;2023-04-28T05:19:32;100462.44;;;18.71;36.76
59443;BME280;45247;47.466;19.004;2023-04-28T05:22:01;100464.56;;;19.19;36.90
59443;BME280;45247;47.466;19.004;2023-04-28T05:24:29;100466.44;;;18.76;35.57
59443;BME280;45247;47.466;19.004;2023-04-28T05:26:58;100469.19;;;19.47;35.53
59443;BME280;45247;47.466;19.004;2023-04-28T05:29:27;100470.88;;;17.35;36.00
59443;BME280;45247;47.466;19.004;2023-04-28T05:31:55;100470.94;;;18.65;36.63
59443;BME280;45247;47.466;19.004;2023-04-28T05:34:23;100473.16;;;18.60;36.58
59443;BME280;45247;47.466;19.004;2023-04-28T05:36:52;100468.19;;;18.34;35.55
59443;BME280;45247;47.466;19.004;2023-04-28T05:39:20;100473.63;;;17.67;36.25
59443;BME280;45247;47.466;19.004;2023-04-28T05:41:48;100483.22;;;17.24;36.42
59443;BME280;45247;47.466;19.004;2023-04-28T05:44:17;100476.59;;;17.30;36.74
59443;BME280;45247;47.466;19.004;2023-04-28T05:46:46;100477.84;;;16.08;38.58
59443;BME280;45247;47.466;19.004;2023-04-28T05:49:15;100480.97;;;15.14;39.72
59443;BME280;45247;47.466;19.004;2023-04-28T05:51:43;100482.41;;;14.67;41.42
59443;BME280;45247;47.466;19.004;2023-04-28T05:54:11;100486.97;;;14.38;41.81
59443;BME280;45247;47.466;19.004;2023-04-28T05:56:40;100491.81;;;13.77;44.31
59443;BME280;45247;47.466;19.004;2023-04-28T05:59:08;100497.31;;;13.60;43.84
59443;BME280;45247;47.466;19.004;2023-04-28T06:01:37;100488.56;;;14.27;44.21
59443;BME280;45247;47.466;19.004;2023-04-28T06:04:06;100488.75;;;15.17;42.03
59443;BME280;45247;47.466;19.004;2023-04-28T06:06:34;100482.88;;;14.46;42.18
59443;BME280;45247;47.466;19.004;2023-04-28T06:09:02;100489.09;;;14.06;43.45
59443;BME280;45247;47.466;19.004;2023-04-28T06:11:31;100490.47;;;14.52;43.34
59443;BME280;45247;47.466;19.004;2023-04-28T06:13:59;100489.09;;;14.06;42.94
59443;BME280;45247;47.466;19.004;2023-04-28T06:16:27;100495.22;;;13.65;43.39
59443;BME280;45247;47.466;19.004;2023-04-28T06:18:57;100491.41;;;14.24;43.15
59443;BME280;45247;47.466;19.004;2023-04-28T06:21:25;100503.59;;;13.59;43.97
59443;BME280;45247;47.466;19.004;2023-04-28T06:23:54;100496.25;;;13.76;43.46
59443;BME280;45247;47.466;19.004;2023-04-28T06:26:23;100503.19;;;13.65;44.05
59443;BME280;45247;47.466;19.004;2023-04-28T06:28:51;100501.75;;;13.16;44.71
59443;BME280;45247;47.466;19.004;2023-04-28T06:31:19;100501.88;;;13.43;44.02
59443;BME280;45247;47.466;19.004;2023-04-28T06:33:47;100495.44;;;13.33;43.72
59443;BME280;45247;47.466;19.004;2023-04-28T06:36:17;100500.75;;;13.33;44.22
59443;BME280;45247;47.466;19.004;2023-04-28T06:38:45;100511.06;;;13.52;43.32
59443;BME280;45247;47.466;19.004;2023-04-28T06:41:13;100510.28;;;13.36;44.06
59443;BME280;45247;47.466;19.004;2023-04-28T06:43:41;100509.72;;;13.31;44.65
59443;BME280;45247;47.466;19.004;2023-04-28T06:46:09;100507.94;;;13.60;45.07
59443;BME280;45247;47.466;19.004;2023-04-28T06:48:38;100510.88;;;13.26;44.54
59443;BME280;45247;47.466;19.004;2023-04-28T06:51:08;100511.50;;;13.16;44.76
59443;BME280;45247;47.466;19.004;2023-04-28T06:53:37;100510.50;;;12.88;45.45
59443;BME280;45247;47.466;19.004;2023-04-28T06:56:06;100518.50;;;12.72;45.92
59443;BME280;45247;47.466;19.004;2023-04-28T06:58:37;100503.22;;;13.50;46.73
59443;BME280;45247;47.466;19.004;2023-04-28T07:01:05;100505.47;;;13.42;45.52
59443;BME280;45247;47.466;19.004;2023-04-28T07:03:33;100500.50;;;13.22;45.52
59443;BME280;45247;47.466;19.004;2023-04-28T07:06:02;100502.91;;;13.69;45.41
59443;BME280;45247;47.466;19.004;2023-04-28T07:08:30;100495.84;;;13.97;44.44
59443;BME280;45247;47.466;19.004;2023-04-28T07:11:00;100494.81;;;14.53;43.44
59443;BME280;45247;47.466;19.004;2023-04-28T07:13:30;100499.75;;;14.45;43.48
59443;BME280;45247;47.466;19.004;2023-04-28T07:15:58;100493.19;;;14.78;43.45
59443;BME280;45247;47.466;19.004;2023-04-28T07:18:27;100487.66;;;14.94;43.41
59443;BME280;45247;47.466;19.004;2023-04-28T07:21:34;100493.63;;;15.23;42.51
59443;BME280;45247;47.466;19.004;2023-04-28T07:24:02;100494.25;;;15.01;43.02
59443;BME280;45247;47.466;19.004;2023-04-28T07:26:32;100496.41;;;15.09;42.66
59443;BME280;45247;47.466;19.004;2023-04-28T07:29:00;100486.63;;;15.35;41.64
59443;BME280;45247;47.466;19.004;2023-04-28T07:31:29;100486.81;;;15.19;42.29
59443;BME280;45247;47.466;19.004;2023-04-28T07:33:57;100489.25;;;15.73;42.12
59443;BME280;45247;47.466;19.004;2023-04-28T07:36:28;100482.16;;;15.22;41.75
59443;BME280;45247;47.466;19.004;2023-04-28T07:38:56;100492.25;;;15.05;41.83
59443;BME280;45247;47.466;19.004;2023-04-28T07:41:27;100484.69;;;15.24;41.81
59443;BME280;45247;47.466;19.004;2023-04-28T07:43:57;100478.84;;;15.19;41.70
59443;BME280;45247;47.466;19.004;2023-04-28T07:46:25;100481.13;;;15.62;41.59
59443;BME280;45247;47.466;19.004;2023-04-28T07:48:53;100480.13;;;15.88;40.35
59443;BME280;45247;47.466;19.004;2023-04-28T07:51:21;100462.13;;;15.55;41.19
59443;BME280;45247;47.466;19.004;2023-04-28T07:53:50;100472.06;;;16.14;41.28
59443;BME280;45247;47.466;19.004;2023-04-28T07:56:18;100468.97;;;16.20;41.83
59443;BME280;45247;47.466;19.004;2023-04-28T07:58:47;100464.28;;;16.23;40.39
59443;BME280;45247;47.466;19.004;2023-04-28T08:01:17;100455.50;;;16.10;39.74
59443;BME280;45247;47.466;19.004;2023-04-28T08:03:45;100454.84;;;16.31;41.95
59443;BME280;45247;47.466;19.004;2023-04-28T08:06:14;100446.31;;;15.90;39.81
59443;BME280;45247;47.466;19.004;2023-04-28T08:08:42;100455.94;;;16.28;40.75
59443;BME280;45247;47.466;19.004;2023-04-28T08:11:11;100447.97;;;16.39;39.06
59443;BME280;45247;47.466;19.004;2023-04-28T08:13:39;100441.06;;;16.72;38.97
59443;BME280;45247;47.466;19.004;2023-04-28T08:16:07;100441.66;;;16.29;39.33
59443;BME280;45247;47.466;19.004;2023-04-28T08:18:37;100434.97;;;16.23;39.78
59443;BME280;45247;47.466;19.004;2023-04-28T08:21:05;100432.88;;;16.16;39.85
59443;BME280;45247;47.466;19.004;2023-04-28T08:23:34;100425.59;;;16.42;39.78
59443;BME280;45247;47.466;19.004;2023-04-28T08:26:02;100423.50;;;16.34;39.64
59443;BME280;45247;47.466;19.004;2023-04-28T08:28:31;100419.78;;;16.48;40.78
59443;BME280;45247;47.466;19.004;2023-04-28T08:31:00;100419.00;;;16.59;39.10
59443;BME280;45247;47.466;19.004;2023-04-28T08:33:28;100413.00;;;16.79;42.05
59443;BME280;45247;47.466;19.004;2023-04-28T08:35:58;100418.09;;;16.82;39.32
59443;BME280;45247;47.466;19.004;2023-04-28T08:38:26;100418.34;;;17.13;39.83
59443;BME280;45247;47.466;19.004;2023-04-28T08:40:54;100415.56;;;17.25;38.46
59443;BME280;45247;47.466;19.004;2023-04-28T08:43:22;100415.19;;;17.41;40.92
59443;BME280;45247;47.466;19.004;2023-04-28T08:45:52;100421.78;;;17.26;38.35
59443;BME280;45247;47.466;19.004;2023-04-28T08:48:21;100415.94;;;17.21;38.65
59443;BME280;45247;47.466;19.004;2023-04-28T08:50:50;100413.97;;;17.34;36.76
59443;BME280;45247;47.466;19.004;2023-04-28T08:53:23;100410.38;;;17.35;37.58
59443;BME280;45247;47.466;19.004;2023-04-28T08:55:53;100412.91;;;17.14;37.35
59443;BME280;45247;47.466;19.004;2023-04-28T08:58:22;100410.47;;;17.11;36.51
59443;BME280;45247;47.466;19.004;2023-04-28T09:00:51;100407.75;;;16.66;37.06
59443;BME280;45247;47.466;19.004;2023-04-28T09:03:19;100402.03;;;16.60;37.42
59443;BME280;45247;47.466;19.004;2023-04-28T09:05:48;100412.81;;;16.69;38.28
59443;BME280;45247;47.466;19.004;2023-04-28T09:08:16;100409.97;;;16.72;39.11
59443;BME280;45247;47.466;19.004;2023-04-28T09:10:46;100410.81;;;16.95;38.03
59443;BME280;45247;47.466;19.004;2023-04-28T09:13:24;100412.19;;;17.23;37.17
59443;BME280;45247;47.466;19.004;2023-04-28T09:15:58;100404.91;;;17.48;38.04
59443;BME280;45247;47.466;19.004;2023-04-28T09:18:26;100404.63;;;17.73;38.11
59443;BME280;45247;47.466;19.004;2023-04-28T09:21:02;100408.13;;;17.63;38.52
59443;BME280;45247;47.466;19.004;2023-04-28T09:23:31;100408.91;;;17.31;36.44
59443;BME280;45247;47.466;19.004;2023-04-28T09:26:03;100404.28;;;17.44;37.00
59443;BME280;45247;47.466;19.004;2023-04-28T09:28:33;100404.75;;;17.38;38.57
59443;BME280;45247;47.466;19.004;2023-04-28T09:31:02;100403.16;;;17.69;37.31
59443;BME280;45247;47.466;19.004;2023-04-28T09:33:30;100403.38;;;18.21;36.42
59443;BME280;45247;47.466;19.004;2023-04-28T09:35:58;100398.53;;;18.47;34.12
59443;BME280;45247;47.466;19.004;2023-04-28T09:38:26;100401.19;;;18.26;35.18
59443;BME280;45247;47.466;19.004;2023-04-28T09:40:56;100410.28;;;17.91;33.17
59443;BME280;45247;47.466;19.004;2023-04-28T09:43:28;100385.75;;;17.97;32.54
59443;BME280;45247;47.466;19.004;2023-04-28T09:45:58;100390.06;;;18.10;33.06
59443;BME280;45247;47.466;19.004;2023-04-28T09:48:31;100383.94;;;17.10;35.08
59443;BME280;45247;47.466;19.004;2023-04-28T09:50:59;100386.00;;;17.40;34.89
59443;BME280;45247;47.466;19.004;2023-04-28T09:53:29;100371.34;;;17.89;35.79
59443;BME280;45247;47.466;19.004;2023-04-28T09:55:58;100382.25;;;17.86;33.19
59443;BME280;45247;47.466;19.004;2023-04-28T09:58:30;100388.97;;;17.80;34.51
59443;BME280;45247;47.466;19.004;2023-04-28T10:00:59;100376.88;;;17.53;35.85
59443;BME280;45247;47.466;19.004;2023-04-28T10:03:29;100368.28;;;17.93;36.15
59443;BME280;45247;47.466;19.004;2023-04-28T10:05:58;100370.47;;;17.99;37.47
59443;BME280;45247;47.466;19.004;2023-04-28T10:08:26;100367.44;;;18.25;36.24
59443;BME280;45247;47.466;19.004;2023-04-28T10:10:55;100352.56;;;18.32;36.35
59443;BME280;45247;47.466;19.004;2023-04-28T10:13:24;100349.75;;;18.13;35.87
59443;BME280;45247;47.466;19.004;2023-04-28T10:15:53;100341.75;;;18.13;36.50
59443;BME280;45247;47.466;19.004;2023-04-28T10:18:24;100336.66;;;18.10;36.13
59443;BME280;45247;47.466;19.004;2023-04-28T10:20:56;100343.59;;;17.69;35.55
59443;BME280;45247;47.466;19.004;2023-04-28T10:23:36;100343.53;;;17.37;36.96
59443;BME280;45247;47.466;19.004;2023-04-28T10:26:14;100339.88;;;17.49;36.87
59443;BME280;45247;47.466;19.004;2023-04-28T10:28:45;100339.88;;;17.60;36.05
59443;BME280;45247;47.466;19.004;2023-04-28T10:31:16;100325.41;;;17.63;36.50
59443;BME280;45247;47.466;19.004;2023-04-28T10:33:47;100327.38;;;17.61;36.80
59443;BME280;45247;47.466;19.004;2023-04-28T10:36:47;100333.47;;;17.40;35.97
59443;BME280;45247;47.466;19.004;2023-04-28T10:39:16;100322.06;;;17.38;37.17
59443;BME280;45247;47.466;19.004;2023-04-28T10:41:45;100307.19;;;17.79;39.27
59443;BME280;45247;47.466;19.004;2023-04-28T10:44:42;100313.66;;;17.54;35.98
59443;BME280;45247;47.466;19.004;2023-04-28T10:47:12;100315.97;;;17.59;38.04
59443;BME280;45247;47.466;19.004;2023-04-28T10:50:08;100307.91;;;18.02;38.37
59443;BME280;45247;47.466;19.004;2023-04-28T10:52:49;100293.03;;;17.99;35.31
59443;BME280;45247;47.466;19.004;2023-04-28T10:55:27;100302.06;;;17.44;36.92
59443;BME280;45247;47.466;19.004;2023-04-28T10:58:31;100292.41;;;17.75;36.74
59443;BME280;45247;47.466;19.004;2023-04-28T11:01:25;100289.69;;;17.86;36.41
59443;BME280;45247;47.466;19.004;2023-04-28T11:03:56;100275.22;;;18.31;37.68
59443;BME280;45247;47.466;19.004;2023-04-28T11:06:31;100279.19;;;18.67;37.18
59443;BME280;45247;47.466;19.004;2023-04-28T11:09:01;100277.41;;;18.67;35.63
59443;BME280;45247;47.466;19.004;2023-04-28T11:11:30;100270.28;;;18.77;35.88
59443;BME280;45247;47.466;19.004;2023-04-28T11:17:02;100273.53;;;18.81;36.62
59443;BME280;45247;47.466;19.004;2023-04-28T11:19:33;100268.34;;;18.59;36.20
59443;BME280;45247;47.466;19.004;2023-04-28T11:22:03;100270.13;;;18.48;36.82
59443;BME280;45247;47.466;19.004;2023-04-28T11:24:35;100264.63;;;18.71;36.96
59443;BME280;45247;47.466;19.004;2023-04-28T11:27:04;100265.97;;;18.35;36.28
59443;BME280;45247;47.466;19.004;2023-04-28T11:29:33;100259.44;;;18.27;38.36
59443;BME280;45247;47.466;19.004;2023-04-28T11:32:02;100262.19;;;18.37;36.25
59443;BME280;45247;47.466;19.004;2023-04-28T11:34:32;100266.56;;;18.38;38.00
59443;BME280;45247;47.466;19.004;2023-04-28T11:37:00;100265.50;;;18.50;36.93
59443;BME280;45247;47.466;19.004;2023-04-28T11:39:29;100268.34;;;18.59;37.10
59443;BME280;45247;47.466;19.004;2023-04-28T11:41:59;100267.03;;;18.53;37.18
59443;BME280;45247;47.466;19.004;2023-04-28T11:44:29;100262.06;;;18.39;37.60
59443;BME280;45247;47.466;19.004;2023-04-28T11:46:59;100261.84;;;18.51;37.90
59443;BME280;45247;47.466;19.004;2023-04-28T11:49:30;100259.72;;;18.76;37.23
59443;BME280;45247;47.466;19.004;2023-04-28T11:52:05;100256.69;;;18.90;36.19
59443;BME280;45247;47.466;19.004;2023-04-28T11:54:34;100251.31;;;18.90;36.62
59443;BME280;45247;47.466;19.004;2023-04-28T11:57:03;100249.88;;;18.76;36.01
59443;BME280;45247;47.466;19.004;2023-04-28T11:59:33;100243.84;;;18.53;35.71
59443;BME280;45247;47.466;19.004;2023-04-28T12:02:06;100242.97;;;18.74;37.55
59443;BME280;45247;47.466;19.004;2023-04-28T12:04:35;100232.03;;;18.56;35.94
59443;BME280;45247;47.466;19.004;2023-04-28T12:07:06;100241.78;;;18.36;35.90
59443;BME280;45247;47.466;19.004;2023-04-28T12:09:37;100246.06;;;18.48;37.07
59443;BME280;45247;47.466;19.004;2023-04-28T12:12:08;100241.63;;;18.59;37.72
59443;BME280;45247;47.466;19.004;2023-04-28T12:14:54;100228.28;;;18.68;38.15
59443;BME280;45247;47.466;19.004;2023-04-28T12:17:23;100228.63;;;18.23;37.55
59443;BME280;45247;47.466;19.004;2023-04-28T12:19:52;100228.16;;;18.39;37.89
59443;BME280;45247;47.466;19.004;2023-04-28T12:22:22;100219.28;;;18.29;36.56
59443;BME280;45247;47.466;19.004;2023-04-28T12:25:04;100216.09;;;18.45;37.48
59443;BME280;45247;47.466;19.004;2023-04-28T12:27:34;100223.81;;;18.38;38.72
59443;BME280;45247;47.466;19.004;2023-04-28T12:30:25;100223.81;;;18.38;38.96
59443;BME280;45247;47.466;19.004;2023-04-28T12:32:54;100209.94;;;18.23;37.15
59443;BME280;45247;47.466;19.004;2023-04-28T12:35:24;100209.47;;;18.39;37.71
59443;BME280;45247;47.466;19.004;2023-04-28T12:37:54;100198.19;;;18.36;37.63
59443;BME280;45247;47.466;19.004;2023-04-28T12:40:24;100192.56;;;18.29;38.19
59443;BME280;45247;47.466;19.004;2023-04-28T12:42:53;100184.13;;;18.34;37.36
59443;BME280;45247;47.466;19.004;2023-04-28T12:45:21;100174.81;;;18.28;37.69
59443;BME280;45247;47.466;19.004;2023-04-28T12:47:49;100177.66;;;18.36;38.38
59443;BME280;45247;47.466;19.004;2023-04-28T12:50:17;100160.56;;;18.48;39.58
59443;BME280;45247;47.466;19.004;2023-04-28T12:52:45;100157.19;;;18.46;38.33
59443;BME280;45247;47.466;19.004;2023-04-28T12:55:15;100156.16;;;18.78;38.39